Time;durP1;ratioP1;P1;durP2;ratioP2;P2;SDS_P1;SDS_P2;PMS_P1;PMS_P2;Temp;Humidity;BMP_temperature;BMP_pressure;BME280_temperature;BME280_humidity;BME280_pressure;Samples;Min_cycle;Max_cycle;Signal;HPM_P1;HPM_P2
2023/06/03 00:01:56;;;;;;;9.18;5.88;;;;;;;19.54;50.61;95500.44;5002925;28;20203;-87
2023/06/03 00:04:22;;;;;;;16.02;6.35;;;;;;;19.50;50.47;95499.31;5012075;28;20207;-85
2023/06/03 00:06:49;;;;;;;7.07;5.82;;;;;;;19.43;51.02;95500.47;5023605;28;20218;-85
2023/06/03 00:09:18;;;;;;;7.50;5.53;;;;;;;19.35;51.21;95500.81;5021907;28;20199;-85
2023/06/03 00:11:45;;;;;;;6.70;5.80;;;;;;;19.31;51.01;95501.28;5022092;28;20492;-87
2023/06/03 00:14:12;;;;;;;8.70;5.50;;;;;;;19.30;51.33;95494.47;5022044;28;20203;-86
2023/06/03 00:16:39;;;;;;;7.95;5.45;;;;;;;19.27;50.98;95504.56;5021731;28;20222;-87
2023/06/03 00:19:05;;;;;;;8.23;5.72;;;;;;;19.23;51.27;95498.25;5015346;28;20191;-86
2023/06/03 00:21:33;;;;;;;7.38;5.78;;;;;;;19.23;51.17;95504.28;5014270;28;20219;-85
2023/06/03 00:23:59;;;;;;;8.82;5.75;;;;;;;19.13;51.82;95514.50;5002490;28;20302;-86
2023/06/03 00:26:29;;;;;;;7.72;5.57;;;;;;;19.11;51.70;95510.53;5002588;28;20227;-86
2023/06/03 00:28:58;;;;;;;8.27;6.10;;;;;;;19.04;51.81;95510.69;5002390;28;20200;-86
2023/06/03 00:31:25;;;;;;;8.27;5.38;;;;;;;19.01;51.70;95512.94;5002522;28;20230;-86
2023/06/03 00:33:52;;;;;;;8.13;6.22;;;;;;;18.94;51.97;95518.28;5002330;28;20770;-86
2023/06/03 00:36:20;;;;;;;7.53;5.47;;;;;;;18.89;52.19;95521.59;5016276;28;20742;-86
2023/06/03 00:38:47;;;;;;;10.52;5.95;;;;;;;18.86;52.20;95518.63;5002182;28;20207;-86
2023/06/03 00:41:18;;;;;;;9.25;5.75;;;;;;;18.81;52.23;95516.75;5002371;28;20258;-87
2023/06/03 00:43:44;;;;;;;6.65;5.28;;;;;;;18.89;52.08;95515.56;4999842;28;20218;-85
2023/06/03 00:46:11;;;;;;;8.30;5.60;;;;;;;18.88;51.69;95516.59;5004892;28;20254;-88
2023/06/03 00:48:39;;;;;;;7.40;5.70;;;;;;;18.78;52.43;95521.59;5014511;28;20216;-87
2023/06/03 00:51:06;;;;;;;7.28;5.85;;;;;;;18.71;52.49;95518.31;5013736;28;20219;-86
2023/06/03 00:53:36;;;;;;;9.07;5.50;;;;;;;18.70;52.26;95511.50;5040826;28;20210;-85
2023/06/03 00:56:03;;;;;;;9.05;5.57;;;;;;;18.73;52.37;95513.66;5040673;28;20678;-86
2023/06/03 00:58:37;;;;;;;7.05;5.88;;;;;;;18.69;52.74;95502.91;5029618;28;20202;-85
2023/06/03 01:01:03;;;;;;;10.00;6.05;;;;;;;18.66;52.60;95511.19;5021167;28;20215;-86
2023/06/03 01:03:30;;;;;;;7.75;5.60;;;;;;;18.67;52.91;95506.75;5020704;28;20338;-86
2023/06/03 01:06:14;;;;;;;10.60;6.10;;;;;;;18.72;52.43;95512.09;5020559;28;20308;-87
2023/06/03 01:08:54;;;;;;;8.15;6.03;;;;;;;18.70;52.68;95507.09;5019915;28;20639;-86
2023/06/03 01:11:29;;;;;;;8.10;6.00;;;;;;;18.66;52.70;95513.81;5020793;28;20214;-86
2023/06/03 01:14:02;;;;;;;8.43;5.88;;;;;;;18.48;52.94;95511.28;5020807;28;20240;-86
2023/06/03 01:16:33;;;;;;;8.65;5.88;;;;;;;18.43;53.62;95513.78;5020413;28;20246;-86
2023/06/03 01:19:01;;;;;;;7.18;6.00;;;;;;;18.38;53.51;95508.44;5007986;28;20222;-86
2023/06/03 01:21:34;;;;;;;6.90;5.95;;;;;;;18.25;53.91;95514.69;5014774;28;20258;-86
2023/06/03 01:24:05;;;;;;;10.52;6.00;;;;;;;18.02;54.73;95506.84;5001722;28;20199;-86
2023/06/03 01:26:34;;;;;;;6.78;5.90;;;;;;;18.00;54.27;95504.47;5001600;28;20314;-88
2023/06/03 01:29:01;;;;;;;9.45;6.22;;;;;;;18.14;54.31;95505.03;5000145;28;20268;-86
2023/06/03 01:31:27;;;;;;;6.97;6.10;;;;;;;18.05;54.21;95495.97;5001333;28;20269;-86
2023/06/03 01:33:56;;;;;;;7.95;6.00;;;;;;;18.16;54.01;95505.59;5001260;28;20207;-88
2023/06/03 01:36:22;;;;;;;6.53;5.78;;;;;;;18.17;53.54;95505.38;5015389;28;20261;-86
2023/06/03 01:38:54;;;;;;;8.32;6.03;;;;;;;18.23;53.72;95491.44;5004537;28;20226;-85
2023/06/03 01:41:22;;;;;;;7.60;6.13;;;;;;;18.24;53.52;95498.25;5003495;28;20706;-88
2023/06/03 01:43:48;;;;;;;7.20;5.72;;;;;;;18.12;53.73;95497.44;5018709;28;20279;-87
2023/06/03 01:46:20;;;;;;;6.25;5.43;;;;;;;18.04;53.59;95495.19;5011505;28;20373;-86
2023/06/03 01:48:50;;;;;;;8.48;5.93;;;;;;;18.04;53.43;95497.78;5007143;28;20629;-86
2023/06/03 01:51:22;;;;;;;7.40;5.47;;;;;;;17.93;53.85;95503.75;5015822;28;20223;-87
2023/06/03 01:53:48;;;;;;;8.07;5.53;;;;;;;17.98;53.46;95496.06;5021669;28;20222;-86
2023/06/03 01:56:22;;;;;;;9.43;5.78;;;;;;;17.97;53.60;95506.72;5019963;28;20703;-87
2023/06/03 01:58:50;;;;;;;7.40;5.55;;;;;;;17.96;53.36;95500.69;5022370;28;20230;-86
2023/06/03 02:01:16;;;;;;;9.00;5.63;;;;;;;17.86;53.84;95500.47;5018508;28;20202;-86
2023/06/03 02:03:43;;;;;;;5.75;4.85;;;;;;;17.99;53.40;95505.47;5004503;28;20720;-88
2023/06/03 02:06:09;;;;;;;6.40;5.25;;;;;;;17.92;53.05;95500.34;5020663;28;20222;-86
2023/06/03 02:08:36;;;;;;;10.25;5.38;;;;;;;18.07;52.66;95504.34;5010714;28;20203;-86
2023/06/03 02:11:03;;;;;;;8.20;5.40;;;;;;;17.90;53.24;95501.59;5020041;28;20638;-86
2023/06/03 02:13:29;;;;;;;8.82;5.30;;;;;;;17.81;53.12;95495.13;5019166;28;20226;-85
2023/06/03 02:16:00;;;;;;;5.03;4.53;;;;;;;17.81;52.93;95493.31;5020373;28;20214;-85
2023/06/03 02:18:28;;;;;;;6.15;5.00;;;;;;;17.66;53.54;95497.38;5021027;28;20203;-85
2023/06/03 02:20:56;;;;;;;6.40;5.43;;;;;;;17.69;53.24;95492.50;5018410;28;20198;-86
2023/06/03 02:23:23;;;;;;;6.57;4.85;;;;;;;17.72;53.26;95492.03;5021335;28;20222;-86
2023/06/03 02:25:49;;;;;;;6.32;5.20;;;;;;;17.75;53.34;95494.22;5008819;28;20199;-86
2023/06/03 02:28:17;;;;;;;8.27;5.47;;;;;;;17.83;52.79;95501.72;5001727;28;20241;-87
2023/06/03 02:30:44;;;;;;;6.93;5.82;;;;;;;17.79;52.63;95502.38;5003461;28;20272;-87
2023/06/03 02:33:12;;;;;;;8.85;5.32;;;;;;;17.71;52.74;95497.47;5014099;28;20198;-87
2023/06/03 02:35:38;;;;;;;7.55;5.50;;;;;;;17.67;52.73;95498.97;5003887;28;20364;-88
2023/06/03 02:38:05;;;;;;;8.10;5.32;;;;;;;17.74;52.74;95494.44;5004167;28;20231;-86
2023/06/03 02:40:33;;;;;;;6.57;5.07;;;;;;;17.57;52.69;95494.25;5014717;28;20199;-86
2023/06/03 02:43:00;;;;;;;12.75;11.55;;;;;;;17.44;53.38;95492.63;5004330;28;20207;-86
2023/06/03 02:45:29;;;;;;;10.10;7.75;;;;;;;17.35;53.15;95499.13;5004500;28;20739;-87
2023/06/03 02:47:57;;;;;;;7.80;5.38;;;;;;;17.35;53.46;95501.75;5012940;28;20352;-86
2023/06/03 02:50:25;;;;;;;6.53;5.10;;;;;;;17.44;53.07;95494.44;5022370;28;20198;-88
2023/06/03 02:52:56;;;;;;;7.63;5.05;;;;;;;17.29;53.09;95500.03;5015864;28;20192;-87
2023/06/03 02:55:23;;;;;;;5.78;4.95;;;;;;;17.30;53.26;95506.03;5003442;28;20213;-87
2023/06/03 02:57:50;;;;;;;7.45;5.05;;;;;;;17.32;53.30;95502.19;5003595;28;20275;-85
2023/06/03 03:00:17;;;;;;;9.60;5.18;;;;;;;17.15;53.71;95504.59;5004326;28;20207;-87
2023/06/03 03:02:44;;;;;;;8.43;4.60;;;;;;;17.12;53.74;95499.84;5003647;28;20198;-85
2023/06/03 03:05:11;;;;;;;7.07;5.05;;;;;;;17.09;53.79;95494.28;5018226;28;20203;-86
2023/06/03 03:07:39;;;;;;;6.50;4.90;;;;;;;17.03;53.89;95497.75;5022385;28;20245;-86
2023/06/03 03:10:06;;;;;;;6.35;4.45;;;;;;;17.08;53.90;95501.31;5022674;28;20202;-87
2023/06/03 03:12:32;;;;;;;7.40;5.28;;;;;;;17.05;53.71;95503.53;5022996;28;20226;-87
2023/06/03 03:14:59;;;;;;;8.13;5.13;;;;;;;17.15;53.53;95501.19;5022373;28;20209;-87
2023/06/03 03:17:25;;;;;;;6.07;4.95;;;;;;;17.18;53.79;95501.56;5022723;28;20319;-86
2023/06/03 03:19:52;;;;;;;6.38;4.70;;;;;;;17.21;53.31;95506.34;5022547;28;20262;-86
2023/06/03 03:22:18;;;;;;;6.65;4.78;;;;;;;17.21;53.28;95508.13;5023994;28;20245;-87
2023/06/03 03:24:51;;;;;;;6.07;4.57;;;;;;;17.22;53.34;95509.72;5010298;28;20199;-87
2023/06/03 03:27:17;;;;;;;6.40;4.88;;;;;;;17.13;52.93;95513.63;5009021;28;20231;-85
2023/06/03 03:29:45;;;;;;;7.25;4.45;;;;;;;17.02;53.12;95516.97;5008137;28;20200;-86
2023/06/03 03:32:12;;;;;;;5.68;4.50;;;;;;;17.10;53.25;95516.69;5003459;28;20296;-85
2023/06/03 03:34:39;;;;;;;5.63;4.97;;;;;;;17.02;53.33;95512.56;5004693;28;20253;-86
2023/06/03 03:37:08;;;;;;;5.88;4.70;;;;;;;17.02;53.11;95516.97;5022153;28;20227;-86
2023/06/03 03:39:38;;;;;;;5.80;4.28;;;;;;;16.93;53.38;95519.09;5011457;28;20203;-85
2023/06/03 03:42:06;;;;;;;10.70;5.07;;;;;;;16.90;53.35;95519.53;5002094;28;20216;-85
2023/06/03 03:44:33;;;;;;;8.73;5.07;;;;;;;16.92;53.61;95523.50;5002781;28;20613;-86
2023/06/03 03:47:01;;;;;;;7.68;4.47;;;;;;;17.04;53.26;95530.56;5003802;28;20255;-85
2023/06/03 03:49:30;;;;;;;7.75;4.55;;;;;;;17.03;53.23;95532.38;5012972;28;20199;-85
2023/06/03 03:51:58;;;;;;;8.65;5.10;;;;;;;17.02;53.49;95528.19;5010075;28;20223;-85
2023/06/03 03:54:24;;;;;;;7.88;4.70;;;;;;;16.99;53.46;95533.00;5016117;28;20287;-85
2023/06/03 03:56:55;;;;;;;8.07;4.25;;;;;;;16.86;54.10;95534.75;5002516;28;20792;-87
2023/06/03 03:59:25;;;;;;;9.20;4.90;;;;;;;16.92;53.44;95541.69;5001665;28;20294;-85
2023/06/03 04:01:52;;;;;;;7.50;4.43;;;;;;;16.88;53.67;95537.94;5010698;28;20606;-86
2023/06/03 04:04:37;;;;;;;5.20;4.43;;;;;;;16.93;53.83;95540.66;5021714;28;20222;-84
2023/06/03 04:07:03;;;;;;;6.45;4.25;;;;;;;16.90;53.84;95543.72;5012733;28;20222;-84
2023/06/03 04:09:30;;;;;;;7.40;4.60;;;;;;;16.92;53.63;95546.09;5015993;28;20214;-85
2023/06/03 04:11:56;;;;;;;8.85;4.50;;;;;;;16.92;53.71;95544.31;5020210;28;20222;-85
2023/06/03 04:14:44;;;;;;;7.13;4.90;;;;;;;16.95;54.12;95545.66;5020667;28;20257;-86
2023/06/03 04:17:13;;;;;;;7.60;4.50;;;;;;;16.97;54.02;95545.44;5019123;28;20222;-84
2023/06/03 04:19:41;;;;;;;7.93;4.68;;;;;;;16.88;53.91;95550.16;5018322;28;20222;-85
2023/06/03 04:22:09;;;;;;;5.07;4.57;;;;;;;16.97;53.86;95548.03;5020705;28;20278;-87
2023/06/03 04:24:38;;;;;;;6.85;4.25;;;;;;;16.97;54.21;95550.63;5029387;28;20202;-84
2023/06/03 04:27:08;;;;;;;5.55;4.40;;;;;;;16.96;53.83;95556.84;5029684;28;20627;-86
2023/06/03 04:29:36;;;;;;;9.25;4.40;;;;;;;16.81;54.29;95560.59;5028574;28;20202;-85
2023/06/03 04:32:02;;;;;;;9.82;5.15;;;;;;;16.62;54.29;95556.38;5027404;28;20218;-85
2023/06/03 04:34:36;;;;;;;6.50;4.50;;;;;;;16.54;54.90;95556.66;5028754;28;20250;-85
2023/06/03 04:37:02;;;;;;;6.95;4.53;;;;;;;16.55;54.99;95553.81;5027167;28;20219;-85
2023/06/03 04:39:29;;;;;;;6.40;4.50;;;;;;;16.70;55.62;95558.72;5025911;28;20550;-84
2023/06/03 04:41:56;;;;;;;7.28;4.43;;;;;;;16.71;54.42;95549.94;5029071;28;20198;-85
2023/06/03 04:44:22;;;;;;;8.93;4.60;;;;;;;16.52;54.79;95551.69;5029938;28;20281;-85
2023/06/03 04:46:50;;;;;;;5.97;4.15;;;;;;;16.69;54.95;95559.75;5029644;28;20218;-84
2023/06/03 04:49:17;;;;;;;8.45;4.60;;;;;;;16.62;54.88;95556.38;5027297;28;20668;-84
2023/06/03 04:51:44;;;;;;;7.13;4.63;;;;;;;16.59;55.16;95556.78;5029250;28;20246;-84
2023/06/03 04:54:10;;;;;;;5.90;4.50;;;;;;;16.62;55.54;95561.56;5027253;28;20341;-85
2023/06/03 04:56:39;;;;;;;7.43;4.35;;;;;;;16.77;54.78;95550.84;5020187;28;20229;-85
2023/06/03 04:59:06;;;;;;;6.47;4.47;;;;;;;16.78;54.71;95555.84;5019595;28;20195;-85
2023/06/03 05:01:36;;;;;;;5.85;4.70;;;;;;;16.83;54.25;95550.00;5020603;28;20226;-86
2023/06/03 05:04:04;;;;;;;6.25;4.53;;;;;;;16.68;55.14;95552.16;5019888;28;20214;-86
2023/06/03 05:06:33;;;;;;;5.75;4.00;;;;;;;16.63;55.13;95558.00;5019863;28;20219;-86
2023/06/03 05:09:00;;;;;;;7.35;4.68;;;;;;;16.72;55.13;95555.91;5020075;28;20238;-84
2023/06/03 05:11:27;;;;;;;5.57;4.43;;;;;;;16.71;55.03;95556.94;5019750;28;20264;-85
2023/06/03 05:13:53;;;;;;;9.25;4.80;;;;;;;16.82;54.81;95549.19;5018644;28;20232;-85
2023/06/03 05:16:19;;;;;;;5.88;4.15;;;;;;;17.01;54.50;95557.00;5019603;28;20711;-85
2023/06/03 05:18:46;;;;;;;7.32;4.85;;;;;;;17.03;54.29;95552.38;5019666;28;20207;-84
2023/06/03 05:21:17;;;;;;;7.43;4.78;;;;;;;17.04;54.31;95543.56;5018431;28;20683;-84
2023/06/03 05:23:43;;;;;;;8.07;5.35;;;;;;;17.08;54.56;95549.94;5019814;28;20206;-85
2023/06/03 05:26:10;;;;;;;5.20;4.18;;;;;;;17.21;54.42;95547.16;5019568;28;20214;-85
2023/06/03 05:28:36;;;;;;;6.95;4.50;;;;;;;17.33;53.39;95552.41;5017917;28;20232;-85
2023/06/03 05:31:03;;;;;;;5.93;4.60;;;;;;;17.36;53.27;95552.00;5017972;28;20206;-86
2023/06/03 05:33:30;;;;;;;6.80;4.43;;;;;;;17.42;53.67;95546.72;5018475;28;20245;-85
2023/06/03 05:35:57;;;;;;;12.02;4.90;;;;;;;17.47;53.62;95546.06;5018820;28;20203;-85
2023/06/03 05:38:27;;;;;;;9.27;4.57;;;;;;;17.41;54.19;95546.94;5018908;28;20249;-84
2023/06/03 05:40:53;;;;;;;6.25;5.13;;;;;;;17.32;54.28;95543.81;5006482;28;20576;-85
2023/06/03 05:43:20;;;;;;;9.50;5.10;;;;;;;17.29;54.29;95549.50;5018335;28;20207;-86
2023/06/03 05:45:47;;;;;;;13.07;4.70;;;;;;;17.36;54.44;95550.19;5018752;28;20229;-86
2023/06/03 05:48:14;;;;;;;9.35;4.97;;;;;;;17.49;54.18;95550.03;5018746;28;20222;-85
2023/06/03 05:50:48;;;;;;;7.00;4.60;;;;;;;17.63;54.42;95547.25;5018575;28;20234;-85
2023/06/03 05:53:15;;;;;;;8.35;5.28;;;;;;;17.63;54.11;95540.22;5020999;28;20618;-86
2023/06/03 05:55:45;;;;;;;5.88;4.78;;;;;;;17.65;53.87;95538.22;5015263;28;20684;-86
2023/06/03 05:58:12;;;;;;;6.68;5.13;;;;;;;17.65;53.97;95535.63;5020845;28;20215;-85
2023/06/03 06:00:38;;;;;;;5.40;4.68;;;;;;;17.60;54.09;95540.66;5004386;28;20200;-85
2023/06/03 06:03:04;;;;;;;7.60;4.80;;;;;;;17.69;54.61;95531.56;5022166;28;20223;-86
2023/06/03 06:05:31;;;;;;;8.85;4.82;;;;;;;17.78;54.30;95539.84;5023364;28;20226;-86
2023/06/03 06:07:57;;;;;;;8.25;4.15;;;;;;;17.87;54.01;95541.13;5023300;28;20226;-87
2023/06/03 06:10:26;;;;;;;7.75;4.70;;;;;;;17.78;53.58;95539.84;5022747;28;20252;-86
2023/06/03 06:12:55;;;;;;;5.68;4.65;;;;;;;17.77;54.02;95543.47;5020072;28;20269;-86
2023/06/03 06:15:22;;;;;;;5.85;4.90;;;;;;;17.76;54.37;95547.09;5022195;28;20206;-86
2023/06/03 06:17:48;;;;;;;7.90;5.07;;;;;;;17.80;54.62;95546.44;5022610;28;20230;-85
2023/06/03 06:20:19;;;;;;;6.07;4.70;;;;;;;17.72;54.52;95545.94;5021837;28;20537;-85
2023/06/03 06:22:48;;;;;;;6.50;5.03;;;;;;;17.52;54.83;95551.38;5022368;28;20191;-86
2023/06/03 06:25:15;;;;;;;5.47;4.63;;;;;;;17.66;55.31;95539.81;5021778;28;20222;-86
2023/06/03 06:27:42;;;;;;;7.70;5.32;;;;;;;17.89;54.54;95554.72;5021751;28;20234;-87
2023/06/03 06:30:23;;;;;;;6.13;4.95;;;;;;;18.07;53.78;95551.25;5023160;28;20206;-84
2023/06/03 06:32:50;;;;;;;6.93;5.15;;;;;;;18.14;54.08;95550.13;5021467;28;20222;-85
2023/06/03 06:35:18;;;;;;;9.38;5.10;;;;;;;18.18;53.72;95553.88;5023892;28;20205;-85
2023/06/03 06:37:45;;;;;;;7.00;5.00;;;;;;;18.21;54.30;95552.63;5022859;28;20226;-86
2023/06/03 06:40:19;;;;;;;8.20;5.15;;;;;;;18.22;53.92;95546.41;5007411;28;20263;-86
2023/06/03 06:42:45;;;;;;;8.25;4.93;;;;;;;18.22;54.30;95546.41;5004120;28;20327;-86
2023/06/03 06:45:22;;;;;;;5.88;5.05;;;;;;;18.20;54.45;95556.25;5004069;28;20203;-86
2023/06/03 06:47:49;;;;;;;6.45;5.53;;;;;;;18.19;54.68;95558.06;5003402;28;20772;-86
2023/06/03 06:50:35;;;;;;;6.45;5.57;;;;;;;18.16;54.09;95560.31;5007060;28;20206;-86
2023/06/03 06:53:04;;;;;;;6.32;5.03;;;;;;;18.25;54.49;95565.00;5015179;28;20219;-85
2023/06/03 06:55:41;;;;;;;8.98;5.60;;;;;;;18.29;54.15;95558.28;5001172;28;20274;-85
2023/06/03 06:58:09;;;;;;;8.65;5.30;;;;;;;18.33;53.99;95563.88;5004470;28;20229;-86
2023/06/03 07:00:37;;;;;;;7.63;6.47;;;;;;;18.57;54.24;95555.03;5006603;28;20227;-85
2023/06/03 07:03:05;;;;;;;8.57;5.93;;;;;;;18.77;53.59;95556.53;5005937;28;20207;-85
2023/06/03 07:05:31;;;;;;;7.25;5.47;;;;;;;18.84;52.93;95560.63;5021914;28;20199;-87
2023/06/03 07:07:58;;;;;;;7.18;4.82;;;;;;;18.78;52.99;95550.31;5025365;28;20234;-86
2023/06/03 07:10:24;;;;;;;7.38;5.22;;;;;;;18.84;53.76;95555.41;5024189;28;20198;-85
2023/06/03 07:12:52;;;;;;;6.20;5.60;;;;;;;18.96;53.48;95558.00;5026053;28;20234;-87
2023/06/03 07:15:18;;;;;;;5.78;4.63;;;;;;;18.99;52.57;95560.16;5025039;28;20194;-85
2023/06/03 07:17:50;;;;;;;6.20;5.25;;;;;;;19.00;53.50;95563.56;5025952;28;20257;-87
2023/06/03 07:20:20;;;;;;;5.93;5.32;;;;;;;19.09;52.99;95565.56;5019816;28;20208;-85
2023/06/03 07:22:47;;;;;;;10.52;6.40;;;;;;;19.20;52.38;95556.16;5025071;28;20199;-86
2023/06/03 07:25:25;;;;;;;7.28;5.70;;;;;;;19.19;52.25;95567.63;5025652;28;20481;-86
2023/06/03 07:27:52;;;;;;;6.82;5.25;;;;;;;19.25;52.00;95569.28;5026527;28;20313;-85
2023/06/03 07:30:19;;;;;;;9.65;6.55;;;;;;;19.43;52.29;95571.75;5026501;28;20237;-87
2023/06/03 07:32:45;;;;;;;9.30;5.45;;;;;;;19.59;52.56;95567.63;5025471;28;20227;-86
2023/06/03 07:35:19;;;;;;;7.70;5.28;;;;;;;19.67;52.20;95565.44;5010329;28;20206;-86
2023/06/03 07:37:46;;;;;;;8.55;5.18;;;;;;;19.83;51.23;95571.72;5007854;28;20238;-87
2023/06/03 07:40:16;;;;;;;8.30;5.55;;;;;;;19.93;51.03;95560.66;5007809;28;20195;-86
2023/06/03 07:42:44;;;;;;;5.72;5.22;;;;;;;19.87;50.87;95572.84;5006196;28;20293;-87
2023/06/03 07:45:12;;;;;;;6.55;5.30;;;;;;;19.73;50.71;95575.97;5019993;28;20230;-87
2023/06/03 07:47:39;;;;;;;6.50;5.13;;;;;;;19.62;51.43;95578.41;5026502;28;20222;-86
2023/06/03 07:50:22;;;;;;;8.35;5.43;;;;;;;19.64;51.82;95580.78;5025673;28;20217;-87
2023/06/03 07:52:58;;;;;;;9.15;5.32;;;;;;;19.76;51.37;95573.69;5027292;28;20215;-87
2023/06/03 07:55:24;;;;;;;8.45;5.00;;;;;;;19.99;51.56;95578.81;5025957;28;20206;-87
2023/06/03 07:57:50;;;;;;;6.13;5.38;;;;;;;20.07;51.37;95576.84;5027080;28;20250;-86
2023/06/03 08:00:18;;;;;;;7.15;5.30;;;;;;;20.21;50.01;95573.69;5027160;28;20782;-86
2023/06/03 08:02:45;;;;;;;6.90;5.40;;;;;;;20.34;50.56;95581.22;5022047;28;20188;-87
2023/06/03 08:05:12;;;;;;;5.88;5.30;;;;;;;20.38;50.33;95586.81;5011516;28;20199;-87
2023/06/03 08:07:45;;;;;;;8.32;5.57;;;;;;;20.53;49.98;95578.41;5006337;28;20223;-88
2023/06/03 08:10:23;;;;;;;7.65;5.15;;;;;;;20.67;50.22;95582.28;5022334;28;20484;-87
2023/06/03 08:12:49;;;;;;;6.55;5.95;;;;;;;20.87;49.57;95579.16;5009991;28;20219;-86
2023/06/03 08:15:31;;;;;;;7.68;5.10;;;;;;;21.16;49.93;95583.22;5015113;28;20202;-86
2023/06/03 08:17:58;;;;;;;7.70;5.82;;;;;;;21.23;48.62;95575.22;5024972;28;20262;-87
2023/06/03 08:20:25;;;;;;;7.55;5.22;;;;;;;21.26;48.98;95579.97;5024828;28;20205;-87
2023/06/03 08:22:58;;;;;;;6.88;5.38;;;;;;;21.27;48.10;95581.53;5025235;28;20207;-87
2023/06/03 08:25:31;;;;;;;7.32;5.05;;;;;;;21.18;48.13;95578.50;5024362;28;20258;-87
2023/06/03 08:27:58;;;;;;;8.60;5.35;;;;;;;21.07;48.81;95582.06;5024511;28;20243;-87
2023/06/03 08:30:25;;;;;;;7.53;5.00;;;;;;;20.80;48.54;95586.38;5025923;28;20262;-86
2023/06/03 08:32:55;;;;;;;6.28;5.13;;;;;;;20.93;48.42;95586.84;5017024;28;20310;-87
2023/06/03 08:35:28;;;;;;;7.15;5.25;;;;;;;20.96;48.22;95575.91;5006775;28;20204;-87
2023/06/03 08:38:16;;;;;;;6.63;5.07;;;;;;;21.20;48.02;95575.69;5006700;28;20220;-87
2023/06/03 08:41:05;;;;;;;6.60;5.25;;;;;;;21.27;47.57;95579.72;4999667;28;20203;-87
2023/06/03 08:43:44;;;;;;;5.60;5.03;;;;;;;21.29;47.71;95576.88;5017679;28;20203;-86
2023/06/03 08:46:23;;;;;;;5.47;4.88;;;;;;;21.64;47.92;95579.88;5017701;28;20656;-87
2023/06/03 08:49:03;;;;;;;7.00;4.90;;;;;;;21.78;46.88;95576.88;5011181;28;20684;-87
2023/06/03 08:51:36;;;;;;;5.05;4.55;;;;;;;21.93;47.01;95580.47;5021090;28;20199;-87
2023/06/03 08:54:11;;;;;;;4.93;4.53;;;;;;;22.07;46.59;95577.47;5023614;28;20215;-87
2023/06/03 08:56:40;;;;;;;5.05;4.55;;;;;;;22.13;46.47;95585.09;5017208;28;20217;-86
2023/06/03 08:59:10;;;;;;;5.40;4.90;;;;;;;22.29;46.13;95583.44;5025434;28;20207;-86
2023/06/03 09:01:38;;;;;;;6.43;4.85;;;;;;;22.54;46.02;95585.44;5023442;28;20207;-86
2023/06/03 09:04:05;;;;;;;6.45;4.70;;;;;;;22.69;45.58;95588.19;5012289;28;20191;-87
2023/06/03 09:06:33;;;;;;;7.30;4.85;;;;;;;22.95;44.80;95589.16;5019218;28;20223;-86
2023/06/03 09:09:01;;;;;;;6.40;4.28;;;;;;;23.01;44.62;95586.34;5000762;28;20340;-87
2023/06/03 09:11:29;;;;;;;6.25;4.47;;;;;;;23.17;45.03;95581.94;4999502;28;20238;-86
2023/06/03 09:13:57;;;;;;;5.85;4.47;;;;;;;23.23;43.94;95580.13;5014564;28;20226;-87
2023/06/03 09:16:24;;;;;;;8.20;4.97;;;;;;;23.26;44.08;95584.88;5022642;28;20250;-85
2023/06/03 09:18:52;;;;;;;6.55;5.25;;;;;;;23.01;43.68;95580.28;5017312;28;20195;-85
2023/06/03 09:21:19;;;;;;;5.13;4.63;;;;;;;23.29;44.44;95572.00;5017709;28;20238;-86
2023/06/03 09:23:46;;;;;;;6.05;4.90;;;;;;;23.28;43.78;95577.53;5002528;28;20195;-86
2023/06/03 09:26:12;;;;;;;11.48;4.45;;;;;;;23.46;43.92;95574.47;4996499;28;20219;-86
2023/06/03 09:28:40;;;;;;;8.23;4.65;;;;;;;23.63;43.54;95579.53;4996912;28;20584;-87
2023/06/03 09:31:07;;;;;;;4.80;4.38;;;;;;;23.46;42.75;95579.72;4999279;28;20218;-86
2023/06/03 09:33:33;;;;;;;8.63;4.65;;;;;;;23.28;43.61;95580.16;4999185;28;20770;-86
2023/06/03 09:36:07;;;;;;;11.05;4.55;;;;;;;23.47;43.54;95580.50;4999356;28;20743;-86
2023/06/03 09:38:46;;;;;;;7.75;4.60;;;;;;;23.68;42.67;95579.53;5001115;28;20227;-85
2023/06/03 09:41:15;;;;;;;5.75;4.22;;;;;;;23.77;43.51;95588.50;5018269;28;20245;-85
2023/06/03 09:43:52;;;;;;;5.90;4.60;;;;;;;23.87;42.56;95585.88;5000081;28;20199;-87
2023/06/03 09:46:19;;;;;;;7.45;4.13;;;;;;;23.94;43.01;95583.03;4999763;28;20227;-86
2023/06/03 09:48:45;;;;;;;4.82;4.38;;;;;;;23.89;42.14;95583.78;4998914;28;20498;-86
2023/06/03 09:51:12;;;;;;;5.80;4.57;;;;;;;23.74;42.22;95575.88;5014027;28;20199;-87
2023/06/03 09:53:40;;;;;;;6.47;4.30;;;;;;;23.79;42.85;95583.78;5023102;28;20222;-86
2023/06/03 09:56:24;;;;;;;5.50;4.80;;;;;;;23.82;42.10;95579.84;5019750;28;20237;-86
2023/06/03 09:59:12;;;;;;;5.68;4.05;;;;;;;23.92;42.69;95579.84;5020054;28;20644;-87
2023/06/03 10:01:45;;;;;;;4.75;4.10;;;;;;;24.01;42.22;95568.59;5019386;28;20290;-87
2023/06/03 10:04:17;;;;;;;7.25;4.22;;;;;;;23.99;41.60;95580.41;5007760;28;20292;-85
2023/06/03 10:06:47;;;;;;;7.60;4.47;;;;;;;23.69;42.12;95586.38;5018736;28;20307;-86
2023/06/03 10:09:25;;;;;;;7.82;4.30;;;;;;;23.56;42.46;95584.25;5008881;28;20207;-85
2023/06/03 10:11:52;;;;;;;6.97;4.30;;;;;;;23.88;42.77;95579.59;5017220;28;20202;-85
2023/06/03 10:14:26;;;;;;;6.20;4.72;;;;;;;24.29;41.86;95577.03;5002345;28;20227;-87
2023/06/03 10:17:12;;;;;;;10.38;4.60;;;;;;;24.48;41.34;95570.19;5000123;28;20215;-86
2023/06/03 10:19:45;;;;;;;6.72;5.13;;;;;;;24.59;40.49;95569.16;5006983;28;20206;-86
2023/06/03 10:22:16;;;;;;;7.40;5.05;;;;;;;24.52;40.39;95563.34;5014936;28;20207;-86
2023/06/03 10:24:44;;;;;;;7.32;5.00;;;;;;;24.15;40.61;95570.69;4999785;28;20237;-86
2023/06/03 10:27:12;;;;;;;8.18;4.43;;;;;;;24.00;41.51;95564.38;4999966;28;20227;-87
2023/06/03 10:29:40;;;;;;;6.70;4.38;;;;;;;24.19;41.34;95569.91;4999701;28;20204;-86
2023/06/03 10:32:08;;;;;;;6.28;4.40;;;;;;;24.29;41.10;95579.66;5000572;28;20196;-86
2023/06/03 10:34:47;;;;;;;5.82;4.28;;;;;;;24.23;41.24;95573.59;5002817;28;20277;-86
2023/06/03 10:37:14;;;;;;;5.78;4.82;;;;;;;24.43;41.18;95562.31;5017075;28;20287;-86
2023/06/03 10:39:42;;;;;;;4.82;4.43;;;;;;;24.56;40.57;95555.72;5022380;28;20249;-87
2023/06/03 10:42:12;;;;;;;7.75;4.80;;;;;;;24.56;40.69;95553.09;5022238;28;20198;-85
2023/06/03 10:44:40;;;;;;;6.50;4.40;;;;;;;24.55;40.17;95560.19;5020407;28;20253;-87
2023/06/03 10:47:10;;;;;;;5.03;4.50;;;;;;;24.52;40.30;95557.28;5019849;28;20222;-86
2023/06/03 10:49:40;;;;;;;5.60;4.50;;;;;;;24.30;40.95;95561.00;5021567;28;20676;-87
2023/06/03 10:52:24;;;;;;;5.68;4.25;;;;;;;24.51;40.42;95556.50;5018940;28;20217;-86
2023/06/03 10:55:01;;;;;;;4.93;4.43;;;;;;;24.48;40.65;95559.66;5002887;28;20219;-86
2023/06/03 10:57:47;;;;;;;6.57;5.15;;;;;;;24.53;40.27;95556.25;5004572;28;20221;-86
2023/06/03 11:00:55;;;;;;;15.43;12.30;;;;;;;24.77;40.27;95547.53;5021647;28;20699;-85
2023/06/03 11:03:22;;;;;;;9.07;4.47;;;;;;;24.94;40.05;95570.97;5007662;28;20195;-87
2023/06/03 11:05:48;;;;;;;8.65;4.80;;;;;;;24.53;40.28;95559.66;5027027;28;20242;-87
2023/06/03 11:08:35;;;;;;;5.53;4.22;;;;;;;24.42;40.22;95564.16;5012932;28;20227;-87
2023/06/03 11:11:02;;;;;;;8.00;4.57;;;;;;;24.51;40.35;95563.63;5005519;28;20214;-87
2023/06/03 11:13:46;;;;;;;5.43;4.20;;;;;;;24.84;39.88;95563.03;5005138;28;20427;-87
2023/06/03 11:16:15;;;;;;;6.63;4.53;;;;;;;25.03;40.04;95558.03;5005043;28;20196;-87
2023/06/03 11:18:42;;;;;;;4.82;4.32;;;;;;;25.28;39.91;95562.44;5005233;28;20230;-86
2023/06/03 11:21:46;;;;;;;4.90;4.20;;;;;;;25.25;39.17;95560.31;5010034;28;20278;-86
2023/06/03 11:24:13;;;;;;;22.20;19.98;;;;;;;25.12;39.95;95553.78;5003754;28;20195;-85
2023/06/03 11:26:39;;;;;;;8.65;6.50;;;;;;;24.99;39.83;95555.16;5004179;28;20233;-87
2023/06/03 11:29:07;;;;;;;8.98;4.68;;;;;;;24.84;40.64;95560.41;5005829;28;20265;-86
2023/06/03 11:31:37;;;;;;;5.72;4.32;;;;;;;25.30;40.44;95547.13;5009272;28;20210;-87
2023/06/03 11:34:23;;;;;;;5.03;4.40;;;;;;;25.43;38.11;95549.97;5022250;28;20207;-86
2023/06/03 11:36:50;;;;;;;8.73;4.95;;;;;;;25.49;38.54;95548.09;5021133;28;20254;-86
2023/06/03 11:39:17;;;;;;;6.38;4.25;;;;;;;25.26;38.39;95541.59;5021109;28;20225;-87
2023/06/03 11:42:04;;;;;;;6.80;4.22;;;;;;;25.00;39.00;95542.78;5020315;28;20202;-87
2023/06/03 11:44:32;;;;;;;6.78;4.47;;;;;;;24.83;39.20;95547.50;5018324;28;20209;-87